sensor_id;sensor_type;location;lat;lon;timestamp;P1;durP1;ratioP1;P2;durP2;ratioP2
82952;SDS011;74888;40.196;44.560;2024-03-02T00:00:17;17.13;;;6.05;;
82952;SDS011;74888;40.196;44.560;2024-03-02T00:02:55;13.20;;;5.75;;
82952;SDS011;74888;40.196;44.560;2024-03-02T00:05:21;16.30;;;5.70;;
82952;SDS011;74888;40.196;44.560;2024-03-02T00:07:53;13.07;;;5.57;;
82952;SDS011;74888;40.196;44.560;2024-03-02T00:10:27;14.23;;;5.57;;
82952;SDS011;74888;40.196;44.560;2024-03-02T00:13:04;14.93;;;6.03;;
82952;SDS011;74888;40.196;44.560;2024-03-02T00:20:56;14.40;;;6.18;;
82952;SDS011;74888;40.196;44.560;2024-03-02T00:23:23;15.23;;;5.65;;
82952;SDS011;74888;40.196;44.560;2024-03-02T00:25:52;12.95;;;5.80;;
82952;SDS011;74888;40.196;44.560;2024-03-02T00:28:20;13.98;;;5.57;;
82952;SDS011;74888;40.196;44.560;2024-03-02T00:33:41;13.63;;;5.72;;
82952;SDS011;74888;40.196;44.560;2024-03-02T00:36:09;11.68;;;5.35;;
82952;SDS011;74888;40.196;44.560;2024-03-02T00:38:41;14.52;;;5.03;;
82952;SDS011;74888;40.196;44.560;2024-03-02T00:41:14;14.77;;;6.13;;
82952;SDS011;74888;40.196;44.560;2024-03-02T00:49:03;14.05;;;5.72;;
82952;SDS011;74888;40.196;44.560;2024-03-02T00:51:47;13.48;;;5.65;;
82952;SDS011;74888;40.196;44.560;2024-03-02T00:54:14;11.85;;;5.53;;
82952;SDS011;74888;40.196;44.560;2024-03-02T00:56:44;12.20;;;5.40;;
82952;SDS011;74888;40.196;44.560;2024-03-02T00:59:10;14.27;;;6.13;;
82952;SDS011;74888;40.196;44.560;2024-03-02T01:01:36;15.38;;;6.18;;
82952;SDS011;74888;40.196;44.560;2024-03-02T01:04:03;13.73;;;5.97;;
82952;SDS011;74888;40.196;44.560;2024-03-02T01:06:29;17.70;;;7.15;;
82952;SDS011;74888;40.196;44.560;2024-03-02T01:08:56;19.38;;;6.85;;
82952;SDS011;74888;40.196;44.560;2024-03-02T01:11:21;19.92;;;6.57;;
82952;SDS011;74888;40.196;44.560;2024-03-02T01:13:47;14.20;;;6.18;;
82952;SDS011;74888;40.196;44.560;2024-03-02T01:18:39;21.23;;;7.13;;
82952;SDS011;74888;40.196;44.560;2024-03-02T01:23:32;22.73;;;7.22;;
82952;SDS011;74888;40.196;44.560;2024-03-02T01:25:58;15.95;;;6.88;;
82952;SDS011;74888;40.196;44.560;2024-03-02T01:28:24;21.42;;;7.30;;
82952;SDS011;74888;40.196;44.560;2024-03-02T01:35:45;19.90;;;7.43;;
82952;SDS011;74888;40.196;44.560;2024-03-02T01:38:11;20.67;;;7.18;;
82952;SDS011;74888;40.196;44.560;2024-03-02T01:40:38;16.27;;;6.60;;
82952;SDS011;74888;40.196;44.560;2024-03-02T01:43:04;21.42;;;8.20;;
82952;SDS011;74888;40.196;44.560;2024-03-02T01:45:31;21.65;;;7.82;;
82952;SDS011;74888;40.196;44.560;2024-03-02T01:47:57;19.88;;;8.07;;
82952;SDS011;74888;40.196;44.560;2024-03-02T01:50:33;21.88;;;8.18;;
82952;SDS011;74888;40.196;44.560;2024-03-02T01:53:00;21.63;;;8.93;;
82952;SDS011;74888;40.196;44.560;2024-03-02T01:55:29;23.00;;;9.25;;
82952;SDS011;74888;40.196;44.560;2024-03-02T01:57:57;20.67;;;8.40;;
82952;SDS011;74888;40.196;44.560;2024-03-02T02:00:24;25.73;;;9.65;;
82952;SDS011;74888;40.196;44.560;2024-03-02T02:02:52;24.30;;;8.25;;
82952;SDS011;74888;40.196;44.560;2024-03-02T02:07:49;20.00;;;9.23;;
82952;SDS011;74888;40.196;44.560;2024-03-02T02:10:15;25.00;;;9.85;;
82952;SDS011;74888;40.196;44.560;2024-03-02T02:12:41;26.05;;;10.18;;
82952;SDS011;74888;40.196;44.560;2024-03-02T02:15:28;22.58;;;9.13;;
82952;SDS011;74888;40.196;44.560;2024-03-02T02:17:55;18.40;;;7.18;;
82952;SDS011;74888;40.196;44.560;2024-03-02T02:20:27;20.20;;;7.80;;
82952;SDS011;74888;40.196;44.560;2024-03-02T02:23:03;21.65;;;8.40;;
82952;SDS011;74888;40.196;44.560;2024-03-02T02:25:30;21.67;;;8.65;;
82952;SDS011;74888;40.196;44.560;2024-03-02T02:27:56;24.35;;;9.15;;
82952;SDS011;74888;40.196;44.560;2024-03-02T02:30:25;21.23;;;9.77;;
82952;SDS011;74888;40.196;44.560;2024-03-02T02:32:55;22.63;;;8.20;;
82952;SDS011;74888;40.196;44.560;2024-03-02T02:37:57;16.15;;;7.15;;
82952;SDS011;74888;40.196;44.560;2024-03-02T02:40:28;16.95;;;7.93;;
82952;SDS011;74888;40.196;44.560;2024-03-02T02:42:57;16.48;;;8.27;;
82952;SDS011;74888;40.196;44.560;2024-03-02T02:45:24;21.50;;;8.55;;
82952;SDS011;74888;40.196;44.560;2024-03-02T02:47:50;24.92;;;9.05;;
82952;SDS011;74888;40.196;44.560;2024-03-02T02:52:41;18.60;;;5.75;;
82952;SDS011;74888;40.196;44.560;2024-03-02T02:55:11;16.75;;;5.65;;
82952;SDS011;74888;40.196;44.560;2024-03-02T02:57:42;20.77;;;5.88;;
82952;SDS011;74888;40.196;44.560;2024-03-02T03:00:10;22.15;;;8.77;;
82952;SDS011;74888;40.196;44.560;2024-03-02T03:02:44;21.77;;;8.52;;
82952;SDS011;74888;40.196;44.560;2024-03-02T03:05:13;26.55;;;9.25;;
82952;SDS011;74888;40.196;44.560;2024-03-02T03:07:39;16.98;;;6.57;;
82952;SDS011;74888;40.196;44.560;2024-03-02T03:10:06;19.45;;;5.55;;
82952;SDS011;74888;40.196;44.560;2024-03-02T03:12:33;13.30;;;5.50;;
82952;SDS011;74888;40.196;44.560;2024-03-02T03:14:59;15.02;;;6.20;;
82952;SDS011;74888;40.196;44.560;2024-03-02T03:17:25;16.50;;;5.68;;
82952;SDS011;74888;40.196;44.560;2024-03-02T03:19:52;13.27;;;6.15;;
82952;SDS011;74888;40.196;44.560;2024-03-02T03:22:25;12.95;;;6.13;;
82952;SDS011;74888;40.196;44.560;2024-03-02T03:24:51;13.82;;;6.25;;
82952;SDS011;74888;40.196;44.560;2024-03-02T03:29:43;15.55;;;5.65;;
82952;SDS011;74888;40.196;44.560;2024-03-02T03:32:09;17.00;;;8.23;;
82952;SDS011;74888;40.196;44.560;2024-03-02T03:34:37;19.10;;;7.45;;
82952;SDS011;74888;40.196;44.560;2024-03-02T03:37:03;20.50;;;10.20;;
82952;SDS011;74888;40.196;44.560;2024-03-02T03:41:54;16.85;;;6.10;;
82952;SDS011;74888;40.196;44.560;2024-03-02T03:44:27;17.95;;;7.07;;
82952;SDS011;74888;40.196;44.560;2024-03-02T03:46:54;27.55;;;9.50;;
82952;SDS011;74888;40.196;44.560;2024-03-02T03:51:57;26.45;;;13.63;;
82952;SDS011;74888;40.196;44.560;2024-03-02T03:54:22;26.42;;;11.82;;
82952;SDS011;74888;40.196;44.560;2024-03-02T03:56:48;21.52;;;8.38;;
82952;SDS011;74888;40.196;44.560;2024-03-02T04:01:44;22.83;;;6.93;;
82952;SDS011;74888;40.196;44.560;2024-03-02T04:04:12;16.73;;;6.70;;
82952;SDS011;74888;40.196;44.560;2024-03-02T04:06:39;15.88;;;6.75;;
82952;SDS011;74888;40.196;44.560;2024-03-02T04:09:05;15.63;;;6.68;;
82952;SDS011;74888;40.196;44.560;2024-03-02T04:11:31;17.05;;;7.13;;
82952;SDS011;74888;40.196;44.560;2024-03-02T04:13:58;19.77;;;6.90;;
82952;SDS011;74888;40.196;44.560;2024-03-02T04:18:54;19.58;;;6.78;;
82952;SDS011;74888;40.196;44.560;2024-03-02T04:21:22;18.85;;;8.32;;
82952;SDS011;74888;40.196;44.560;2024-03-02T04:23:49;26.05;;;9.93;;
82952;SDS011;74888;40.196;44.560;2024-03-02T04:26:15;22.33;;;8.85;;
82952;SDS011;74888;40.196;44.560;2024-03-02T04:28:45;24.27;;;9.43;;
82952;SDS011;74888;40.196;44.560;2024-03-02T04:36:11;22.33;;;8.65;;
82952;SDS011;74888;40.196;44.560;2024-03-02T04:38:38;22.23;;;8.18;;
82952;SDS011;74888;40.196;44.560;2024-03-02T04:41:04;34.67;;;17.15;;
82952;SDS011;74888;40.196;44.560;2024-03-02T04:43:33;38.60;;;14.13;;
82952;SDS011;74888;40.196;44.560;2024-03-02T04:46:02;23.90;;;10.85;;
82952;SDS011;74888;40.196;44.560;2024-03-02T04:48:28;26.45;;;10.25;;
82952;SDS011;74888;40.196;44.560;2024-03-02T04:50:55;29.90;;;10.13;;
82952;SDS011;74888;40.196;44.560;2024-03-02T04:53:21;30.70;;;11.10;;
82952;SDS011;74888;40.196;44.560;2024-03-02T04:55:47;35.80;;;11.52;;
82952;SDS011;74888;40.196;44.560;2024-03-02T04:58:31;28.60;;;10.52;;
82952;SDS011;74888;40.196;44.560;2024-03-02T05:00:56;26.90;;;10.25;;
82952;SDS011;74888;40.196;44.560;2024-03-02T05:03:22;39.08;;;12.60;;
82952;SDS011;74888;40.196;44.560;2024-03-02T05:05:49;34.97;;;12.57;;
82952;SDS011;74888;40.196;44.560;2024-03-02T05:08:16;30.98;;;12.40;;
82952;SDS011;74888;40.196;44.560;2024-03-02T05:10:44;40.92;;;13.75;;
82952;SDS011;74888;40.196;44.560;2024-03-02T05:13:10;40.75;;;15.18;;
82952;SDS011;74888;40.196;44.560;2024-03-02T05:15:35;46.67;;;15.10;;
82952;SDS011;74888;40.196;44.560;2024-03-02T05:18:02;40.38;;;14.88;;
82952;SDS011;74888;40.196;44.560;2024-03-02T05:20:31;42.95;;;17.52;;
82952;SDS011;74888;40.196;44.560;2024-03-02T05:22:57;43.92;;;17.10;;
82952;SDS011;74888;40.196;44.560;2024-03-02T05:25:22;47.33;;;16.67;;
82952;SDS011;74888;40.196;44.560;2024-03-02T05:27:49;45.63;;;16.25;;
82952;SDS011;74888;40.196;44.560;2024-03-02T05:30:15;39.97;;;16.60;;
82952;SDS011;74888;40.196;44.560;2024-03-02T05:32:40;40.40;;;14.52;;
82952;SDS011;74888;40.196;44.560;2024-03-02T05:35:08;39.58;;;14.57;;
82952;SDS011;74888;40.196;44.560;2024-03-02T05:37:36;37.72;;;15.30;;
82952;SDS011;74888;40.196;44.560;2024-03-02T05:40:02;40.30;;;14.85;;
82952;SDS011;74888;40.196;44.560;2024-03-02T05:42:30;40.05;;;15.60;;
82952;SDS011;74888;40.196;44.560;2024-03-02T05:44:55;42.30;;;14.40;;
82952;SDS011;74888;40.196;44.560;2024-03-02T05:47:21;42.08;;;14.05;;
82952;SDS011;74888;40.196;44.560;2024-03-02T05:49:52;41.58;;;14.32;;
82952;SDS011;74888;40.196;44.560;2024-03-02T05:52:18;42.70;;;14.80;;
82952;SDS011;74888;40.196;44.560;2024-03-02T05:54:44;40.47;;;13.93;;
82952;SDS011;74888;40.196;44.560;2024-03-02T05:57:10;49.88;;;15.30;;
82952;SDS011;74888;40.196;44.560;2024-03-02T05:59:42;48.63;;;19.05;;
82952;SDS011;74888;40.196;44.560;2024-03-02T06:02:11;51.60;;;17.95;;
82952;SDS011;74888;40.196;44.560;2024-03-02T06:04:36;44.83;;;18.83;;
82952;SDS011;74888;40.196;44.560;2024-03-02T06:07:02;42.38;;;17.05;;
82952;SDS011;74888;40.196;44.560;2024-03-02T06:09:28;54.00;;;20.58;;
82952;SDS011;74888;40.196;44.560;2024-03-02T06:12:00;58.63;;;19.83;;
82952;SDS011;74888;40.196;44.560;2024-03-02T06:14:26;45.90;;;17.80;;
82952;SDS011;74888;40.196;44.560;2024-03-02T06:16:52;49.78;;;19.17;;
82952;SDS011;74888;40.196;44.560;2024-03-02T06:19:20;46.67;;;18.63;;
82952;SDS011;74888;40.196;44.560;2024-03-02T06:21:46;47.10;;;18.38;;
82952;SDS011;74888;40.196;44.560;2024-03-02T06:24:11;46.85;;;16.35;;
82952;SDS011;74888;40.196;44.560;2024-03-02T06:26:39;40.75;;;16.73;;
82952;SDS011;74888;40.196;44.560;2024-03-02T06:29:05;47.70;;;19.00;;
82952;SDS011;74888;40.196;44.560;2024-03-02T06:31:32;47.50;;;19.02;;
82952;SDS011;74888;40.196;44.560;2024-03-02T06:33:58;47.60;;;18.80;;
82952;SDS011;74888;40.196;44.560;2024-03-02T06:36:24;56.53;;;22.38;;
82952;SDS011;74888;40.196;44.560;2024-03-02T06:38:49;46.97;;;18.75;;
82952;SDS011;74888;40.196;44.560;2024-03-02T06:41:15;41.28;;;18.10;;
82952;SDS011;74888;40.196;44.560;2024-03-02T06:43:41;50.88;;;17.85;;
82952;SDS011;74888;40.196;44.560;2024-03-02T06:46:08;50.00;;;19.75;;
82952;SDS011;74888;40.196;44.560;2024-03-02T06:48:35;51.17;;;19.27;;
82952;SDS011;74888;40.196;44.560;2024-03-02T06:51:01;52.88;;;20.90;;
82952;SDS011;74888;40.196;44.560;2024-03-02T06:53:27;45.78;;;18.45;;
82952;SDS011;74888;40.196;44.560;2024-03-02T06:55:53;46.25;;;19.50;;
82952;SDS011;74888;40.196;44.560;2024-03-02T06:58:19;43.85;;;19.60;;
82952;SDS011;74888;40.196;44.560;2024-03-02T07:00:45;71.22;;;24.35;;
82952;SDS011;74888;40.196;44.560;2024-03-02T07:03:11;90.38;;;30.90;;
82952;SDS011;74888;40.196;44.560;2024-03-02T07:05:40;117.45;;;44.50;;
82952;SDS011;74888;40.196;44.560;2024-03-02T07:08:06;180.57;;;67.10;;
82952;SDS011;74888;40.196;44.560;2024-03-02T07:10:33;232.23;;;84.35;;
82952;SDS011;74888;40.196;44.560;2024-03-02T07:12:59;241.00;;;91.68;;
82952;SDS011;74888;40.196;44.560;2024-03-02T07:15:25;263.90;;;102.68;;
82952;SDS011;74888;40.196;44.560;2024-03-02T07:18:10;215.65;;;78.45;;
82952;SDS011;74888;40.196;44.560;2024-03-02T07:20:36;193.95;;;72.22;;
82952;SDS011;74888;40.196;44.560;2024-03-02T07:23:04;193.52;;;72.85;;
82952;SDS011;74888;40.196;44.560;2024-03-02T07:25:31;226.68;;;86.32;;
82952;SDS011;74888;40.196;44.560;2024-03-02T07:27:56;228.18;;;85.85;;
82952;SDS011;74888;40.196;44.560;2024-03-02T07:30:23;212.32;;;82.38;;
82952;SDS011;74888;40.196;44.560;2024-03-02T07:32:52;175.07;;;66.40;;
82952;SDS011;74888;40.196;44.560;2024-03-02T07:35:17;176.13;;;67.38;;
82952;SDS011;74888;40.196;44.560;2024-03-02T07:37:43;170.00;;;64.28;;
82952;SDS011;74888;40.196;44.560;2024-03-02T07:40:10;160.10;;;61.67;;
82952;SDS011;74888;40.196;44.560;2024-03-02T07:42:37;156.85;;;61.00;;
82952;SDS011;74888;40.196;44.560;2024-03-02T07:45:05;162.57;;;62.42;;
82952;SDS011;74888;40.196;44.560;2024-03-02T07:47:32;176.20;;;63.70;;
82952;SDS011;74888;40.196;44.560;2024-03-02T07:49:59;179.07;;;63.13;;
82952;SDS011;74888;40.196;44.560;2024-03-02T07:52:25;164.63;;;64.25;;
82952;SDS011;74888;40.196;44.560;2024-03-02T07:54:52;182.90;;;69.53;;
82952;SDS011;74888;40.196;44.560;2024-03-02T07:57:17;180.48;;;71.22;;
82952;SDS011;74888;40.196;44.560;2024-03-02T07:59:43;194.60;;;71.15;;
82952;SDS011;74888;40.196;44.560;2024-03-02T08:02:10;186.10;;;71.68;;
82952;SDS011;74888;40.196;44.560;2024-03-02T08:04:38;198.90;;;71.28;;
82952;SDS011;74888;40.196;44.560;2024-03-02T08:07:05;185.95;;;68.60;;
82952;SDS011;74888;40.196;44.560;2024-03-02T08:09:31;154.63;;;60.40;;
82952;SDS011;74888;40.196;44.560;2024-03-02T08:11:57;150.80;;;53.95;;
82952;SDS011;74888;40.196;44.560;2024-03-02T08:14:25;146.40;;;53.17;;
82952;SDS011;74888;40.196;44.560;2024-03-02T08:16:52;130.73;;;47.42;;
82952;SDS011;74888;40.196;44.560;2024-03-02T08:19:18;123.22;;;44.55;;
82952;SDS011;74888;40.196;44.560;2024-03-02T08:21:44;105.78;;;40.47;;
82952;SDS011;74888;40.196;44.560;2024-03-02T08:24:10;101.38;;;36.53;;
82952;SDS011;74888;40.196;44.560;2024-03-02T08:26:36;93.15;;;37.65;;
82952;SDS011;74888;40.196;44.560;2024-03-02T08:29:01;90.82;;;35.88;;
82952;SDS011;74888;40.196;44.560;2024-03-02T08:31:28;90.95;;;35.30;;
82952;SDS011;74888;40.196;44.560;2024-03-02T08:33:55;84.18;;;32.90;;
82952;SDS011;74888;40.196;44.560;2024-03-02T08:36:22;74.25;;;29.20;;
82952;SDS011;74888;40.196;44.560;2024-03-02T08:38:49;67.95;;;28.35;;
82952;SDS011;74888;40.196;44.560;2024-03-02T08:41:16;76.57;;;30.60;;
82952;SDS011;74888;40.196;44.560;2024-03-02T08:43:42;101.90;;;33.55;;
82952;SDS011;74888;40.196;44.560;2024-03-02T08:46:08;93.30;;;35.72;;
82952;SDS011;74888;40.196;44.560;2024-03-02T08:48:34;77.25;;;31.67;;
82952;SDS011;74888;40.196;44.560;2024-03-02T08:51:00;82.43;;;32.30;;
82952;SDS011;74888;40.196;44.560;2024-03-02T08:53:26;97.03;;;37.83;;
82952;SDS011;74888;40.196;44.560;2024-03-02T08:55:51;81.70;;;31.55;;
82952;SDS011;74888;40.196;44.560;2024-03-02T08:58:17;81.65;;;31.35;;
82952;SDS011;74888;40.196;44.560;2024-03-02T09:00:49;66.72;;;26.90;;
82952;SDS011;74888;40.196;44.560;2024-03-02T09:03:20;69.30;;;25.75;;
82952;SDS011;74888;40.196;44.560;2024-03-02T09:05:46;61.13;;;24.20;;
82952;SDS011;74888;40.196;44.560;2024-03-02T09:08:12;57.38;;;21.77;;
82952;SDS011;74888;40.196;44.560;2024-03-02T09:10:38;47.63;;;20.10;;
82952;SDS011;74888;40.196;44.560;2024-03-02T09:13:05;47.00;;;18.90;;
82952;SDS011;74888;40.196;44.560;2024-03-02T09:15:31;51.13;;;20.23;;
82952;SDS011;74888;40.196;44.560;2024-03-02T09:17:56;43.33;;;17.90;;
82952;SDS011;74888;40.196;44.560;2024-03-02T09:20:22;32.55;;;15.85;;
82952;SDS011;74888;40.196;44.560;2024-03-02T09:22:49;44.28;;;16.83;;
82952;SDS011;74888;40.196;44.560;2024-03-02T09:25:15;36.63;;;15.82;;
82952;SDS011;74888;40.196;44.560;2024-03-02T09:27:41;32.95;;;16.58;;
82952;SDS011;74888;40.196;44.560;2024-03-02T09:32:40;38.00;;;16.27;;
82952;SDS011;74888;40.196;44.560;2024-03-02T09:35:07;39.28;;;16.38;;
82952;SDS011;74888;40.196;44.560;2024-03-02T09:37:36;39.80;;;17.65;;
82952;SDS011;74888;40.196;44.560;2024-03-02T09:40:02;38.88;;;18.75;;
82952;SDS011;74888;40.196;44.560;2024-03-02T09:45:03;32.70;;;15.95;;
82952;SDS011;74888;40.196;44.560;2024-03-02T09:47:31;35.38;;;15.88;;
82952;SDS011;74888;40.196;44.560;2024-03-02T09:49:58;37.13;;;15.73;;
82952;SDS011;74888;40.196;44.560;2024-03-02T09:52:24;40.60;;;15.68;;
82952;SDS011;74888;40.196;44.560;2024-03-02T09:54:56;40.80;;;16.25;;
82952;SDS011;74888;40.196;44.560;2024-03-02T09:57:23;30.83;;;14.85;;
82952;SDS011;74888;40.196;44.560;2024-03-02T09:59:49;40.65;;;15.95;;
82952;SDS011;74888;40.196;44.560;2024-03-02T10:04:48;30.98;;;13.70;;
82952;SDS011;74888;40.196;44.560;2024-03-02T10:07:16;32.22;;;14.80;;
82952;SDS011;74888;40.196;44.560;2024-03-02T10:09:43;37.15;;;16.15;;
82952;SDS011;74888;40.196;44.560;2024-03-02T10:12:17;37.97;;;14.85;;
82952;SDS011;74888;40.196;44.560;2024-03-02T10:14:44;36.13;;;14.02;;
82952;SDS011;74888;40.196;44.560;2024-03-02T10:17:11;33.78;;;14.18;;
82952;SDS011;74888;40.196;44.560;2024-03-02T10:19:38;33.33;;;15.35;;
82952;SDS011;74888;40.196;44.560;2024-03-02T10:22:07;32.70;;;15.75;;
82952;SDS011;74888;40.196;44.560;2024-03-02T10:24:40;26.80;;;14.95;;
82952;SDS011;74888;40.196;44.560;2024-03-02T10:27:31;31.40;;;14.77;;
82952;SDS011;74888;40.196;44.560;2024-03-02T10:29:59;30.20;;;15.75;;
82952;SDS011;74888;40.196;44.560;2024-03-02T10:32:28;35.40;;;13.50;;
82952;SDS011;74888;40.196;44.560;2024-03-02T10:34:54;49.17;;;15.93;;
82952;SDS011;74888;40.196;44.560;2024-03-02T10:37:21;31.85;;;13.93;;
82952;SDS011;74888;40.196;44.560;2024-03-02T10:39:46;30.85;;;14.05;;
82952;SDS011;74888;40.196;44.560;2024-03-02T10:42:12;32.90;;;15.10;;
82952;SDS011;74888;40.196;44.560;2024-03-02T10:44:39;31.73;;;15.15;;
82952;SDS011;74888;40.196;44.560;2024-03-02T10:47:06;37.22;;;15.07;;
82952;SDS011;74888;40.196;44.560;2024-03-02T10:49:34;37.15;;;16.65;;
82952;SDS011;74888;40.196;44.560;2024-03-02T10:51:59;45.67;;;19.60;;
82952;SDS011;74888;40.196;44.560;2024-03-02T10:54:25;34.80;;;14.45;;
82952;SDS011;74888;40.196;44.560;2024-03-02T10:56:54;29.05;;;14.43;;
82952;SDS011;74888;40.196;44.560;2024-03-02T11:01:58;45.78;;;16.63;;
82952;SDS011;74888;40.196;44.560;2024-03-02T11:04:28;60.72;;;29.73;;
82952;SDS011;74888;40.196;44.560;2024-03-02T11:07:04;37.67;;;16.92;;
82952;SDS011;74888;40.196;44.560;2024-03-02T11:09:35;41.10;;;16.90;;
82952;SDS011;74888;40.196;44.560;2024-03-02T11:12:19;38.22;;;15.55;;
82952;SDS011;74888;40.196;44.560;2024-03-02T11:14:52;147.98;;;53.08;;
82952;SDS011;74888;40.196;44.560;2024-03-02T11:17:19;57.15;;;26.17;;
82952;SDS011;74888;40.196;44.560;2024-03-02T11:19:48;52.90;;;19.77;;
82952;SDS011;74888;40.196;44.560;2024-03-02T11:22:15;44.85;;;17.00;;
82952;SDS011;74888;40.196;44.560;2024-03-02T11:24:48;40.05;;;17.50;;
82952;SDS011;74888;40.196;44.560;2024-03-02T11:27:20;38.53;;;16.92;;
82952;SDS011;74888;40.196;44.560;2024-03-02T11:35:35;36.85;;;16.67;;
82952;SDS011;74888;40.196;44.560;2024-03-02T11:38:03;35.45;;;15.40;;
82952;SDS011;74888;40.196;44.560;2024-03-02T11:40:31;35.53;;;16.58;;
82952;SDS011;74888;40.196;44.560;2024-03-02T11:42:59;39.03;;;15.77;;
82952;SDS011;74888;40.196;44.560;2024-03-02T11:45:27;41.60;;;16.40;;
82952;SDS011;74888;40.196;44.560;2024-03-02T11:47:54;36.53;;;16.48;;
82952;SDS011;74888;40.196;44.560;2024-03-02T11:53:08;54.65;;;18.90;;
82952;SDS011;74888;40.196;44.560;2024-03-02T11:55:35;51.33;;;19.05;;
82952;SDS011;74888;40.196;44.560;2024-03-02T11:58:04;37.45;;;16.25;;
82952;SDS011;74888;40.196;44.560;2024-03-02T12:00:29;49.85;;;20.10;;
82952;SDS011;74888;40.196;44.560;2024-03-02T12:03:06;47.72;;;18.52;;
82952;SDS011;74888;40.196;44.560;2024-03-02T12:08:02;36.08;;;15.98;;
82952;SDS011;74888;40.196;44.560;2024-03-02T12:10:29;52.58;;;23.30;;
82952;SDS011;74888;40.196;44.560;2024-03-02T12:12:59;54.38;;;23.17;;
82952;SDS011;74888;40.196;44.560;2024-03-02T12:15:30;39.53;;;18.15;;
82952;SDS011;74888;40.196;44.560;2024-03-02T12:17:58;50.13;;;18.58;;
82952;SDS011;74888;40.196;44.560;2024-03-02T12:20:25;55.72;;;18.83;;
82952;SDS011;74888;40.196;44.560;2024-03-02T12:22:55;35.78;;;15.88;;
82952;SDS011;74888;40.196;44.560;2024-03-02T12:25:24;34.90;;;15.20;;
82952;SDS011;74888;40.196;44.560;2024-03-02T12:27:51;30.75;;;14.43;;
82952;SDS011;74888;40.196;44.560;2024-03-02T12:30:19;34.72;;;14.85;;
82952;SDS011;74888;40.196;44.560;2024-03-02T12:32:48;41.42;;;19.17;;
82952;SDS011;74888;40.196;44.560;2024-03-02T12:35:14;39.45;;;15.75;;
82952;SDS011;74888;40.196;44.560;2024-03-02T12:37:49;37.50;;;15.68;;
82952;SDS011;74888;40.196;44.560;2024-03-02T12:40:16;40.80;;;18.85;;
82952;SDS011;74888;40.196;44.560;2024-03-02T12:42:45;43.17;;;19.27;;
82952;SDS011;74888;40.196;44.560;2024-03-02T12:45:12;51.70;;;19.42;;
82952;SDS011;74888;40.196;44.560;2024-03-02T12:47:39;30.23;;;14.82;;
82952;SDS011;74888;40.196;44.560;2024-03-02T12:50:06;28.05;;;14.10;;
82952;SDS011;74888;40.196;44.560;2024-03-02T12:52:33;32.50;;;14.63;;
82952;SDS011;74888;40.196;44.560;2024-03-02T12:55:02;29.60;;;14.50;;
82952;SDS011;74888;40.196;44.560;2024-03-02T12:57:31;33.25;;;14.88;;
82952;SDS011;74888;40.196;44.560;2024-03-02T12:59:59;45.92;;;14.90;;
82952;SDS011;74888;40.196;44.560;2024-03-02T13:02:28;52.35;;;13.88;;
82952;SDS011;74888;40.196;44.560;2024-03-02T13:04:59;28.17;;;13.27;;
82952;SDS011;74888;40.196;44.560;2024-03-02T13:07:25;24.85;;;12.48;;
82952;SDS011;74888;40.196;44.560;2024-03-02T13:09:51;25.20;;;12.50;;
82952;SDS011;74888;40.196;44.560;2024-03-02T13:12:19;22.48;;;12.82;;
82952;SDS011;74888;40.196;44.560;2024-03-02T13:14:51;25.02;;;11.63;;
82952;SDS011;74888;40.196;44.560;2024-03-02T13:17:20;38.05;;;11.43;;
82952;SDS011;74888;40.196;44.560;2024-03-02T13:19:56;24.00;;;10.93;;
82952;SDS011;74888;40.196;44.560;2024-03-02T13:22:25;32.17;;;12.27;;
82952;SDS011;74888;40.196;44.560;2024-03-02T13:24:52;21.73;;;10.82;;
82952;SDS011;74888;40.196;44.560;2024-03-02T13:27:22;24.40;;;10.77;;
82952;SDS011;74888;40.196;44.560;2024-03-02T13:29:47;27.15;;;11.90;;
82952;SDS011;74888;40.196;44.560;2024-03-02T13:32:14;27.05;;;11.40;;
82952;SDS011;74888;40.196;44.560;2024-03-02T13:34:40;26.92;;;12.13;;
82952;SDS011;74888;40.196;44.560;2024-03-02T13:37:06;29.45;;;12.13;;
82952;SDS011;74888;40.196;44.560;2024-03-02T13:39:32;24.95;;;12.77;;
82952;SDS011;74888;40.196;44.560;2024-03-02T13:42:05;31.70;;;14.82;;
82952;SDS011;74888;40.196;44.560;2024-03-02T13:44:34;34.65;;;14.90;;
82952;SDS011;74888;40.196;44.560;2024-03-02T13:47:02;45.17;;;16.02;;
82952;SDS011;74888;40.196;44.560;2024-03-02T13:49:29;36.72;;;15.00;;
82952;SDS011;74888;40.196;44.560;2024-03-02T13:52:05;39.47;;;17.08;;
82952;SDS011;74888;40.196;44.560;2024-03-02T13:54:42;39.88;;;15.82;;
82952;SDS011;74888;40.196;44.560;2024-03-02T13:57:10;39.70;;;16.05;;
82952;SDS011;74888;40.196;44.560;2024-03-02T13:59:40;34.28;;;16.00;;
82952;SDS011;74888;40.196;44.560;2024-03-02T14:02:07;29.67;;;14.63;;
82952;SDS011;74888;40.196;44.560;2024-03-02T14:04:34;33.30;;;16.50;;
82952;SDS011;74888;40.196;44.560;2024-03-02T14:07:01;36.17;;;15.95;;
82952;SDS011;74888;40.196;44.560;2024-03-02T14:09:34;38.33;;;16.27;;
82952;SDS011;74888;40.196;44.560;2024-03-02T14:12:00;48.28;;;18.77;;
82952;SDS011;74888;40.196;44.560;2024-03-02T14:14:27;42.80;;;17.98;;
82952;SDS011;74888;40.196;44.560;2024-03-02T14:16:54;44.58;;;19.98;;
82952;SDS011;74888;40.196;44.560;2024-03-02T14:19:22;47.10;;;18.80;;
82952;SDS011;74888;40.196;44.560;2024-03-02T14:21:47;42.97;;;19.65;;
82952;SDS011;74888;40.196;44.560;2024-03-02T14:24:13;49.78;;;20.20;;
82952;SDS011;74888;40.196;44.560;2024-03-02T14:26:39;40.88;;;17.58;;
82952;SDS011;74888;40.196;44.560;2024-03-02T14:29:06;47.40;;;19.33;;
82952;SDS011;74888;40.196;44.560;2024-03-02T14:31:31;42.42;;;18.20;;
82952;SDS011;74888;40.196;44.560;2024-03-02T14:33:57;41.38;;;17.55;;
82952;SDS011;74888;40.196;44.560;2024-03-02T14:36:23;38.67;;;18.48;;
82952;SDS011;74888;40.196;44.560;2024-03-02T14:38:50;48.40;;;21.63;;
82952;SDS011;74888;40.196;44.560;2024-03-02T14:41:19;51.85;;;23.00;;
82952;SDS011;74888;40.196;44.560;2024-03-02T14:43:45;54.22;;;22.17;;
82952;SDS011;74888;40.196;44.560;2024-03-02T14:46:11;61.17;;;23.63;;
82952;SDS011;74888;40.196;44.560;2024-03-02T14:48:37;47.03;;;18.27;;
82952;SDS011;74888;40.196;44.560;2024-03-02T14:51:05;40.10;;;17.02;;
82952;SDS011;74888;40.196;44.560;2024-03-02T14:53:31;39.05;;;18.77;;
82952;SDS011;74888;40.196;44.560;2024-03-02T14:55:57;35.10;;;17.50;;
82952;SDS011;74888;40.196;44.560;2024-03-02T14:58:23;39.38;;;18.27;;
82952;SDS011;74888;40.196;44.560;2024-03-02T15:00:50;42.55;;;17.63;;
82952;SDS011;74888;40.196;44.560;2024-03-02T15:03:16;31.10;;;15.90;;
82952;SDS011;74888;40.196;44.560;2024-03-02T15:05:42;33.10;;;16.13;;
82952;SDS011;74888;40.196;44.560;2024-03-02T15:08:07;42.22;;;18.60;;
82952;SDS011;74888;40.196;44.560;2024-03-02T15:10:33;40.90;;;19.33;;
82952;SDS011;74888;40.196;44.560;2024-03-02T15:12:59;50.83;;;20.45;;
82952;SDS011;74888;40.196;44.560;2024-03-02T15:15:27;50.08;;;21.05;;
82952;SDS011;74888;40.196;44.560;2024-03-02T15:17:53;47.13;;;21.10;;
82952;SDS011;74888;40.196;44.560;2024-03-02T15:20:19;50.65;;;21.92;;
82952;SDS011;74888;40.196;44.560;2024-03-02T15:22:46;65.22;;;24.98;;